Time;durP1;ratioP1;P1;durP2;ratioP2;P2;SDS_P1;SDS_P2;PMS_P1;PMS_P2;Temp;Humidity;BMP_temperature;BMP_pressure;BME280_temperature;BME280_humidity;BME280_pressure;Samples;Min_cycle;Max_cycle;Signal;HPM_P1;HPM_P2
2022/07/28 00:00:09;;;;;;;3.45;0.70;;;10.90;99.90;;;;;;5027065;28;20041;-79
2022/07/28 00:02:34;;;;;;;1.08;0.50;;;10.90;99.90;;;;;;5040466;28;20064;-79
2022/07/28 00:05:00;;;;;;;7.15;2.35;;;10.90;99.90;;;;;;5045938;28;20099;-79
2022/07/28 00:07:25;;;;;;;2.08;0.60;;;10.90;99.90;;;;;;5032219;28;20048;-78
2022/07/28 00:09:51;;;;;;;1.95;0.85;;;10.80;99.90;;;;;;5039819;28;20174;-78
2022/07/28 00:12:17;;;;;;;2.00;0.63;;;10.80;99.90;;;;;;5045725;28;20049;-79
2022/07/28 00:14:43;;;;;;;3.50;0.80;;;10.80;99.90;;;;;;5046856;28;20068;-79
2022/07/28 00:17:09;;;;;;;4.35;0.70;;;10.80;99.90;;;;;;5044212;28;20033;-80
2022/07/28 00:19:34;;;;;;;4.05;0.75;;;10.80;99.90;;;;;;5046963;28;20093;-80
2022/07/28 00:22:01;;;;;;;6.43;0.77;;;10.80;99.90;;;;;;5046540;28;20052;-80
2022/07/28 00:24:27;;;;;;;2.40;0.60;;;10.80;99.90;;;;;;5042457;28;20041;-80
2022/07/28 00:26:53;;;;;;;4.22;0.50;;;10.80;99.90;;;;;;5049133;28;20491;-80
2022/07/28 00:29:18;;;;;;;1.98;0.45;;;10.80;99.90;;;;;;5047798;28;20047;-80
2022/07/28 00:31:44;;;;;;;3.53;0.50;;;10.70;99.90;;;;;;5040679;28;20118;-80
2022/07/28 00:34:10;;;;;;;4.35;0.85;;;10.70;99.90;;;;;;5046985;28;20045;-80
2022/07/28 00:36:36;;;;;;;3.50;1.13;;;10.60;99.90;;;;;;5042217;28;20049;-79
2022/07/28 00:39:02;;;;;;;4.80;0.57;;;10.50;99.90;;;;;;5048225;28;20044;-80
2022/07/28 00:41:28;;;;;;;6.13;0.50;;;10.50;99.90;;;;;;5042932;28;20076;-80
2022/07/28 00:43:53;;;;;;;1.42;0.50;;;10.60;99.90;;;;;;5045236;28;20135;-80
2022/07/28 00:46:21;;;;;;;2.25;0.90;;;10.50;99.90;;;;;;5026936;28;20048;-80
2022/07/28 00:48:51;;;;;;;2.30;0.68;;;10.40;99.90;;;;;;5044129;28;20045;-78
2022/07/28 00:51:18;;;;;;;3.85;0.70;;;10.40;99.90;;;;;;5048813;28;20044;-80
2022/07/28 00:53:45;;;;;;;1.38;0.52;;;10.40;99.90;;;;;;5043374;28;20041;-80
2022/07/28 00:56:11;;;;;;;3.42;0.43;;;10.30;99.90;;;;;;5043883;28;20045;-79
2022/07/28 00:58:37;;;;;;;1.65;0.52;;;10.40;99.90;;;;;;5062656;28;20048;-79
2022/07/28 01:01:08;;;;;;;4.53;0.60;;;10.30;99.90;;;;;;5046749;28;20099;-79
2022/07/28 01:03:38;;;;;;;2.13;0.77;;;10.30;99.90;;;;;;5047189;28;20041;-80
2022/07/28 01:06:28;;;;;;;2.85;0.70;;;10.30;99.90;;;;;;5043696;28;20049;-79
2022/07/28 01:09:18;;;;;;;2.10;0.88;;;10.30;99.90;;;;;;5045284;28;20048;-80
2022/07/28 01:12:09;;;;;;;1.98;0.60;;;10.30;99.90;;;;;;5047215;28;20126;-81
2022/07/28 01:14:55;;;;;;;1.30;0.50;;;10.40;99.90;;;;;;5046027;28;20053;-79
2022/07/28 01:17:50;;;;;;;1.23;0.60;;;10.30;99.90;;;;;;5051748;28;20045;-79
2022/07/28 01:20:21;;;;;;;1.38;0.63;;;10.30;99.90;;;;;;5013113;28;20104;-79
2022/07/28 01:22:50;;;;;;;3.20;0.73;;;10.40;99.90;;;;;;5046862;28;20088;-80
2022/07/28 01:26:11;;;;;;;2.60;0.57;;;10.30;99.90;;;;;;5046266;28;20094;-80
2022/07/28 01:29:01;;;;;;;4.57;0.95;;;10.30;99.90;;;;;;5019694;28;20162;-80
2022/07/28 01:31:35;;;;;;;4.30;0.95;;;10.30;99.90;;;;;;5047183;28;20131;-79
2022/07/28 01:34:11;;;;;;;1.10;0.70;;;10.20;99.90;;;;;;5051599;28;20052;-80
2022/07/28 01:36:41;;;;;;;2.65;0.82;;;10.20;99.90;;;;;;5051063;28;20041;-80
2022/07/28 01:39:08;;;;;;;3.58;0.98;;;10.20;99.90;;;;;;5044987;28;20041;-80
2022/07/28 01:41:36;;;;;;;6.97;1.00;;;10.20;99.90;;;;;;5050959;28;20102;-78
2022/07/28 01:44:09;;;;;;;1.48;0.75;;;10.20;99.90;;;;;;5046793;28;20557;-80
2022/07/28 01:46:37;;;;;;;2.20;1.10;;;10.20;99.90;;;;;;5057740;28;20045;-79
2022/07/28 01:49:03;;;;;;;3.28;1.33;;;10.20;99.90;;;;;;5046781;28;20612;-79
2022/07/28 01:51:29;;;;;;;2.83;0.80;;;10.20;99.90;;;;;;5046037;28;20029;-79
2022/07/28 01:53:58;;;;;;;1.13;0.70;;;10.20;99.90;;;;;;5048652;28;20039;-79
2022/07/28 01:56:25;;;;;;;1.98;0.75;;;10.20;99.90;;;;;;5048748;28;20086;-80
2022/07/28 01:58:54;;;;;;;4.00;0.90;;;10.20;99.90;;;;;;5048565;28;20129;-79
2022/07/28 02:01:22;;;;;;;2.42;0.60;;;10.20;99.90;;;;;;5027729;28;20059;-80
2022/07/28 02:03:48;;;;;;;5.85;0.77;;;10.20;99.90;;;;;;5047695;28;20186;-79
2022/07/28 02:06:18;;;;;;;2.40;0.75;;;10.20;99.90;;;;;;5042136;28;20411;-78
2022/07/28 02:08:45;;;;;;;1.35;0.60;;;10.20;99.90;;;;;;5044977;28;20061;-79
2022/07/28 02:13:56;;;;;;;4.10;0.90;;;10.10;99.90;;;;;;5046248;28;20049;-78
2022/07/28 02:16:24;;;;;;;6.90;1.35;;;10.00;99.90;;;;;;5046757;28;20057;-79
2022/07/28 02:18:51;;;;;;;3.15;0.73;;;10.10;99.90;;;;;;5051330;28;20112;-80
2022/07/28 02:21:17;;;;;;;3.65;0.80;;;10.10;99.90;;;;;;5047489;28;20060;-78
2022/07/28 02:23:46;;;;;;;1.40;0.60;;;10.00;99.90;;;;;;5042417;28;20088;-80
2022/07/28 02:26:15;;;;;;;2.60;0.95;;;10.10;99.90;;;;;;5045152;28;20120;-78
2022/07/28 02:28:45;;;;;;;2.45;0.80;;;10.10;99.90;;;;;;5045684;28;20036;-78
2022/07/28 02:31:23;;;;;;;3.60;1.00;;;10.00;99.90;;;;;;5046195;28;20091;-79
2022/07/28 02:33:53;;;;;;;1.73;0.50;;;10.00;99.90;;;;;;5061153;28;20091;-80
2022/07/28 02:36:27;;;;;;;5.28;0.50;;;9.90;99.90;;;;;;5042821;28;20045;-80
2022/07/28 02:38:55;;;;;;;2.53;0.60;;;9.90;99.90;;;;;;5048235;28;20087;-80
2022/07/28 02:41:25;;;;;;;2.58;0.60;;;9.80;99.90;;;;;;5048567;28;20464;-79
2022/07/28 02:43:55;;;;;;;2.67;0.68;;;9.80;99.90;;;;;;5046401;28;20044;-80
2022/07/28 02:46:45;;;;;;;2.03;1.15;;;9.80;99.90;;;;;;5050114;28;20045;-79
2022/07/28 02:49:24;;;;;;;2.78;0.90;;;9.80;99.90;;;;;;5049791;28;20056;-80
2022/07/28 02:51:52;;;;;;;1.98;0.70;;;9.80;99.90;;;;;;5064480;28;20045;-80
2022/07/28 02:54:19;;;;;;;3.00;1.50;;;9.80;99.90;;;;;;5044323;28;20036;-78
2022/07/28 02:56:50;;;;;;;3.05;0.70;;;9.80;99.90;;;;;;5029067;28;20043;-79
2022/07/28 02:59:18;;;;;;;0.90;0.60;;;9.80;99.90;;;;;;5045183;28;20091;-79
2022/07/28 03:01:44;;;;;;;2.45;0.80;;;9.80;99.90;;;;;;5026143;28;20041;-79
2022/07/28 03:04:12;;;;;;;3.60;1.20;;;9.70;99.90;;;;;;5041877;28;20118;-79
2022/07/28 03:06:38;;;;;;;2.22;1.10;;;9.70;99.90;;;;;;5046447;28;20056;-79
2022/07/28 03:09:06;;;;;;;5.18;2.35;;;9.80;99.90;;;;;;5040127;28;20827;-80
2022/07/28 03:11:32;;;;;;;1.67;1.00;;;9.70;99.90;;;;;;5057305;28;20049;-78
2022/07/28 03:13:58;;;;;;;4.07;1.30;;;9.70;99.90;;;;;;5047121;28;20032;-80
2022/07/28 03:16:23;;;;;;;3.42;0.93;;;9.60;99.90;;;;;;5045843;28;20079;-80
2022/07/28 03:18:49;;;;;;;2.03;1.00;;;9.60;99.90;;;;;;5046273;28;20095;-80
2022/07/28 03:21:14;;;;;;;2.40;0.77;;;9.50;99.90;;;;;;5046622;28;20037;-80
2022/07/28 03:23:46;;;;;;;3.22;1.20;;;9.50;99.90;;;;;;5040534;28;20424;-80
2022/07/28 03:26:19;;;;;;;3.05;1.05;;;9.50;99.90;;;;;;5055319;28;20123;-80
2022/07/28 03:28:47;;;;;;;4.13;1.50;;;9.50;99.90;;;;;;5023148;28;20087;-79
2022/07/28 03:31:14;;;;;;;2.17;1.55;;;9.50;99.90;;;;;;5044272;28;20048;-80
2022/07/28 03:33:40;;;;;;;3.05;1.48;;;9.50;99.90;;;;;;5046326;28;20507;-79
2022/07/28 03:36:11;;;;;;;2.75;1.58;;;9.50;99.90;;;;;;5045601;28;20140;-80
2022/07/28 03:38:50;;;;;;;4.47;1.25;;;9.50;99.90;;;;;;5046965;28;20847;-80
2022/07/28 03:41:18;;;;;;;2.80;1.23;;;9.50;99.90;;;;;;5042143;28;20118;-80
2022/07/28 03:43:44;;;;;;;1.55;1.02;;;9.50;99.90;;;;;;5046514;28;20064;-79
2022/07/28 03:46:11;;;;;;;2.95;1.45;;;9.50;99.90;;;;;;5048811;28;20076;-79
2022/07/28 03:48:37;;;;;;;3.65;1.70;;;9.50;99.90;;;;;;5061010;28;20132;-80
2022/07/28 03:51:03;;;;;;;4.00;2.20;;;9.50;99.90;;;;;;5043934;28;20087;-80
2022/07/28 03:53:28;;;;;;;7.63;2.58;;;9.60;99.90;;;;;;5044559;28;20113;-80
2022/07/28 03:55:55;;;;;;;3.80;2.08;;;9.50;99.90;;;;;;5040274;28;20136;-80
2022/07/28 03:58:24;;;;;;;4.28;1.90;;;9.60;99.90;;;;;;5039777;28;20169;-80
2022/07/28 04:00:49;;;;;;;3.67;2.00;;;9.60;99.90;;;;;;5046359;28;20096;-80
2022/07/28 04:03:17;;;;;;;7.72;2.15;;;9.60;99.90;;;;;;5044760;28;20041;-80
2022/07/28 04:05:43;;;;;;;5.70;2.15;;;9.70;99.90;;;;;;5039877;28;20044;-80
2022/07/28 04:08:08;;;;;;;7.57;2.58;;;9.60;99.90;;;;;;5046419;28;20047;-79
2022/07/28 04:10:34;;;;;;;6.97;2.45;;;9.60;99.90;;;;;;5030764;28;20075;-80
2022/07/28 04:13:00;;;;;;;7.28;2.40;;;9.60;99.90;;;;;;5043626;28;20156;-80
2022/07/28 04:15:27;;;;;;;3.78;1.80;;;9.60;99.90;;;;;;5043869;28;20040;-78
2022/07/28 04:17:53;;;;;;;4.43;1.67;;;9.60;99.90;;;;;;5044914;28;20274;-78
2022/07/28 04:20:21;;;;;;;1.80;1.17;;;9.60;99.90;;;;;;5039294;28;20037;-79
2022/07/28 04:22:47;;;;;;;3.42;1.20;;;9.60;99.90;;;;;;5042979;28;20084;-80
2022/07/28 04:25:14;;;;;;;2.38;2.13;;;9.70;99.90;;;;;;5044051;28;20052;-80
2022/07/28 04:27:41;;;;;;;6.60;1.90;;;9.60;99.90;;;;;;5028459;28;20408;-80
2022/07/28 04:30:13;;;;;;;8.15;3.58;;;9.60;99.90;;;;;;5040871;28;20116;-80
2022/07/28 04:32:39;;;;;;;2.65;1.40;;;9.70;99.90;;;;;;5056417;28;20045;-79
2022/07/28 04:35:07;;;;;;;5.07;1.40;;;9.80;99.90;;;;;;5063547;28;20045;-80
2022/07/28 04:37:32;;;;;;;2.58;1.00;;;9.70;99.90;;;;;;5041193;28;20040;-80
2022/07/28 04:39:58;;;;;;;2.63;1.48;;;9.70;99.90;;;;;;5044020;28;20487;-79
2022/07/28 04:42:24;;;;;;;2.10;1.08;;;9.70;99.90;;;;;;5042339;28;20091;-80
2022/07/28 04:44:49;;;;;;;3.65;1.02;;;9.80;99.90;;;;;;5042454;28;20099;-79
2022/07/28 04:47:15;;;;;;;1.98;1.23;;;9.80;99.90;;;;;;5029842;28;20037;-80
2022/07/28 04:49:41;;;;;;;2.30;1.95;;;9.80;99.90;;;;;;5046137;28;20086;-80
2022/07/28 04:52:07;;;;;;;2.22;1.35;;;9.90;99.90;;;;;;5050145;28;20051;-80
2022/07/28 04:54:34;;;;;;;2.78;0.98;;;9.90;99.90;;;;;;5042351;28;20076;-79
2022/07/28 04:57:00;;;;;;;2.88;1.20;;;10.00;99.90;;;;;;5050220;28;20041;-80
2022/07/28 04:59:26;;;;;;;4.15;1.42;;;10.00;99.90;;;;;;5050590;28;20041;-80
2022/07/28 05:01:51;;;;;;;3.45;1.40;;;10.10;99.90;;;;;;5050443;28;20049;-79
2022/07/28 05:04:17;;;;;;;2.30;1.23;;;10.30;99.90;;;;;;5065179;28;20040;-80
2022/07/28 05:06:43;;;;;;;3.72;1.48;;;10.40;99.90;;;;;;5048190;28;20047;-80
2022/07/28 05:09:08;;;;;;;2.15;1.13;;;10.50;99.90;;;;;;5047359;28;20051;-79
2022/07/28 05:11:34;;;;;;;3.28;1.17;;;10.50;99.90;;;;;;5046667;28;20056;-80
2022/07/28 05:13:59;;;;;;;2.85;1.30;;;10.70;99.90;;;;;;5051942;28;20049;-79
2022/07/28 05:16:25;;;;;;;2.80;1.27;;;10.80;99.90;;;;;;5066114;28;20060;-79
2022/07/28 05:18:51;;;;;;;5.28;0.95;;;11.00;99.90;;;;;;5034473;28;20037;-80
2022/07/28 05:21:16;;;;;;;1.67;0.77;;;11.40;99.90;;;;;;5050470;28;20040;-81
2022/07/28 05:23:42;;;;;;;2.15;0.70;;;11.90;99.90;;;;;;5050477;28;20032;-80
2022/07/28 05:26:07;;;;;;;4.65;1.13;;;12.40;99.90;;;;;;5049668;28;20116;-80
2022/07/28 05:28:33;;;;;;;2.05;1.05;;;13.90;99.90;;;;;;5052869;28;20451;-81
2022/07/28 05:30:58;;;;;;;3.83;1.05;;;15.90;99.90;;;;;;5053818;28;20048;-81
2022/07/28 05:33:24;;;;;;;5.07;0.80;;;18.00;99.90;;;;;;5049414;28;20049;-79
2022/07/28 05:35:56;;;;;;;2.35;0.50;;;19.80;99.90;;;;;;5050045;28;20048;-80
2022/07/28 05:38:24;;;;;;;2.22;0.32;;;21.00;99.90;;;;;;5049355;28;20085;-81
2022/07/28 05:40:50;;;;;;;1.50;0.73;;;22.10;99.90;;;;;;5046851;28;20075;-81
2022/07/28 05:43:15;;;;;;;4.50;0.85;;;23.30;99.90;;;;;;5050607;28;20201;-81
2022/07/28 05:45:41;;;;;;;2.65;0.80;;;24.60;99.90;;;;;;5049180;28;20076;-82
2022/07/28 05:48:07;;;;;;;1.80;0.80;;;25.30;99.90;;;;;;5050900;28;20056;-80
2022/07/28 05:50:35;;;;;;;3.05;0.60;;;25.30;99.90;;;;;;5044631;28;20040;-80
2022/07/28 05:53:01;;;;;;;1.83;0.80;;;25.00;99.90;;;;;;5043519;28;20090;-80
2022/07/28 05:55:27;;;;;;;3.22;0.70;;;24.50;99.90;;;;;;5047014;28;20036;-81
2022/07/28 05:57:53;;;;;;;2.08;1.00;;;24.10;99.90;;;;;;5040309;28;20559;-76
2022/07/28 06:00:21;;;;;;;3.50;0.70;;;23.70;99.90;;;;;;5059668;28;20033;-79
2022/07/28 06:02:48;;;;;;;2.35;0.70;;;23.40;99.90;;;;;;5045828;28;20068;-81
2022/07/28 06:05:19;;;;;;;1.73;0.60;;;22.90;99.90;;;;;;5041231;28;20056;-79
2022/07/28 06:07:46;;;;;;;4.97;0.80;;;22.50;99.90;;;;;;5046307;28;20033;-78
2022/07/28 06:10:14;;;;;;;13.70;1.00;;;22.00;99.90;;;;;;5040574;28;20037;-80
2022/07/28 06:12:44;;;;;;;5.63;0.85;;;21.80;99.90;;;;;;5037390;28;20037;-79
2022/07/28 06:15:16;;;;;;;5.40;0.55;;;21.40;99.90;;;;;;5039044;28;20168;-79
2022/07/28 06:17:42;;;;;;;6.10;0.70;;;21.50;99.90;;;;;;5042374;28;20048;-79
2022/07/28 06:20:09;;;;;;;5.35;1.17;;;21.70;99.90;;;;;;5040272;28;20049;-80
2022/07/28 06:22:46;;;;;;;4.13;1.15;;;21.80;99.90;;;;;;5052128;28;20049;-79
2022/07/28 06:25:16;;;;;;;3.17;0.68;;;21.70;99.90;;;;;;5022011;28;20187;-79
2022/07/28 06:27:44;;;;;;;3.90;0.82;;;21.30;99.90;;;;;;5040270;28;20417;-78
2022/07/28 06:30:10;;;;;;;6.55;0.55;;;21.00;99.90;;;;;;5039502;28;20159;-78
2022/07/28 06:32:36;;;;;;;3.35;0.77;;;21.10;99.90;;;;;;5032679;28;20108;-79
2022/07/28 06:35:02;;;;;;;4.22;0.50;;;21.30;99.90;;;;;;5037451;28;21208;-79
2022/07/28 06:37:28;;;;;;;3.00;0.60;;;21.20;99.90;;;;;;5029010;28;20041;-80
2022/07/28 06:39:53;;;;;;;3.30;0.40;;;21.30;99.90;;;;;;5029406;28;20448;-79
2022/07/28 06:42:19;;;;;;;2.97;0.63;;;21.30;99.90;;;;;;5018852;28;20040;-80
2022/07/28 06:44:44;;;;;;;2.30;0.50;;;21.20;99.90;;;;;;5025721;28;20045;-80
2022/07/28 06:47:16;;;;;;;4.57;0.40;;;21.10;99.90;;;;;;5035715;28;20392;-84
2022/07/28 06:49:41;;;;;;;3.20;0.40;;;21.10;99.90;;;;;;5030942;28;20029;-82
2022/07/28 06:52:07;;;;;;;3.33;0.50;;;21.00;99.90;;;;;;5032971;28;20036;-80
2022/07/28 06:54:33;;;;;;;5.82;0.60;;;20.80;99.90;;;;;;5024138;28;20045;-82
2022/07/28 06:56:59;;;;;;;2.53;0.50;;;20.50;99.90;;;;;;5031077;28;20110;-82
2022/07/28 06:59:24;;;;;;;4.90;0.60;;;20.30;99.90;;;;;;5025669;28;20118;-80
2022/07/28 07:01:50;;;;;;;4.85;0.30;;;20.00;99.90;;;;;;5030089;28;20110;-86
2022/07/28 07:04:16;;;;;;;5.38;0.60;;;19.70;99.90;;;;;;5028668;28;20128;-80
2022/07/28 07:06:59;;;;;;;1.75;0.40;;;19.70;99.90;;;;;;5031581;28;20075;-86
2022/07/28 07:09:25;;;;;;;2.13;0.40;;;19.50;99.90;;;;;;5018509;28;20040;-81
2022/07/28 07:11:52;;;;;;;3.38;0.70;;;19.30;99.90;;;;;;5014876;28;20147;-82
2022/07/28 07:14:21;;;;;;;6.13;1.50;;;19.10;99.90;;;;;;5048017;28;20071;-82
2022/07/28 07:16:54;;;;;;;3.83;0.50;;;18.90;99.90;;;;;;5016362;28;20040;-84
2022/07/28 07:19:20;;;;;;;4.07;0.50;;;18.70;99.90;;;;;;5008994;28;21797;-82
2022/07/28 07:21:49;;;;;;;3.40;0.98;;;18.70;99.90;;;;;;5017843;28;20180;-79
2022/07/28 07:24:15;;;;;;;3.20;0.50;;;18.70;99.90;;;;;;5021076;28;20029;-79
2022/07/28 07:26:40;;;;;;;6.90;1.30;;;18.70;99.90;;;;;;5004191;28;20041;-84
2022/07/28 07:29:07;;;;;;;4.70;0.80;;;18.60;99.90;;;;;;5023112;28;20119;-79
2022/07/28 07:31:37;;;;;;;2.90;0.35;;;18.60;99.90;;;;;;5025022;28;20040;-80
2022/07/28 07:34:03;;;;;;;5.43;0.40;;;18.50;99.90;;;;;;5022087;28;20116;-82
2022/07/28 07:36:29;;;;;;;2.53;0.45;;;18.50;99.90;;;;;;5006654;28;20040;-84
2022/07/28 07:38:55;;;;;;;3.40;0.40;;;18.50;99.90;;;;;;5042609;28;20037;-80
2022/07/28 07:41:20;;;;;;;7.45;0.55;;;18.40;99.90;;;;;;5022792;28;20098;-85
2022/07/28 07:43:47;;;;;;;4.03;0.50;;;18.30;99.90;;;;;;5029513;28;20048;-79
2022/07/28 07:46:15;;;;;;;6.72;0.90;;;18.20;99.90;;;;;;5016469;28;20048;-83
2022/07/28 07:48:42;;;;;;;4.60;0.38;;;18.30;99.90;;;;;;5021435;28;20056;-84
2022/07/28 07:51:08;;;;;;;2.65;0.50;;;18.20;99.90;;;;;;5025944;28;20041;-80
2022/07/28 07:53:37;;;;;;;4.78;0.32;;;18.10;99.90;;;;;;5019515;28;20072;-82
2022/07/28 07:56:02;;;;;;;4.05;0.30;;;18.20;99.90;;;;;;4998823;28;20060;-83
2022/07/28 07:58:28;;;;;;;8.50;0.93;;;18.30;99.90;;;;;;5019466;28;20736;-84
2022/07/28 08:00:53;;;;;;;6.85;0.30;;;18.60;99.90;;;;;;5029963;28;20094;-81
2022/07/28 08:03:21;;;;;;;8.10;0.85;;;18.80;99.90;;;;;;5021195;28;20051;-84
2022/07/28 08:05:55;;;;;;;2.15;0.35;;;18.90;99.90;;;;;;5010725;28;20064;-81
2022/07/28 08:08:23;;;;;;;3.88;0.35;;;19.00;99.90;;;;;;5021669;28;20045;-81
2022/07/28 08:10:49;;;;;;;2.03;0.38;;;19.20;99.90;;;;;;5013277;28;20045;-83
2022/07/28 08:13:31;;;;;;;;;;;;;;;;;;;;;
2022/07/28 08:16:09;;;;;;;3.00;0.30;;;19.50;99.90;;;;;;5028873;28;20146;-82
2022/07/28 08:18:57;;;;;;;1.75;0.40;;;19.50;99.90;;;;;;5022021;28;20041;-79
2022/07/28 08:21:24;;;;;;;1.60;0.28;;;19.70;99.90;;;;;;5026317;28;20518;-80
2022/07/28 08:23:50;;;;;;;3.33;0.50;;;19.90;99.90;;;;;;5020128;28;20048;-81
2022/07/28 08:26:15;;;;;;;4.78;0.40;;;19.70;99.90;;;;;;5008799;28;20030;-79
2022/07/28 08:28:41;;;;;;;1.95;0.20;;;19.70;99.90;;;;;;5028509;28;20040;-79
2022/07/28 08:31:07;;;;;;;17.17;1.27;;;19.70;99.90;;;;;;5033814;28;20124;-79
2022/07/28 08:33:35;;;;;;;4.72;0.30;;;19.70;99.90;;;;;;5034933;28;20041;-82
2022/07/28 08:36:01;;;;;;;3.25;0.40;;;19.80;99.90;;;;;;5033044;28;20060;-81
2022/07/28 08:38:27;;;;;;;2.33;0.60;;;19.90;99.90;;;;;;5049892;28;20453;-80
2022/07/28 08:40:55;;;;;;;5.13;0.40;;;20.00;99.90;;;;;;5030558;28;20051;-86
2022/07/28 08:43:29;;;;;;;6.47;0.68;;;20.10;99.90;;;;;;5029966;28;20175;-82
2022/07/28 08:45:57;;;;;;;1.73;0.20;;;20.00;99.90;;;;;;5025611;28;20049;-81
2022/07/28 08:48:23;;;;;;;3.08;0.40;;;19.90;99.90;;;;;;5024135;28;20046;-79
2022/07/28 08:50:50;;;;;;;2.72;0.40;;;19.70;99.90;;;;;;5029699;28;20048;-78
2022/07/28 08:53:18;;;;;;;2.38;0.50;;;19.70;99.90;;;;;;5026281;28;20171;-79
2022/07/28 08:55:43;;;;;;;3.33;0.40;;;19.60;99.90;;;;;;5024895;28;20041;-80
2022/07/28 08:58:11;;;;;;;2.88;0.50;;;19.40;99.90;;;;;;5028645;28;20049;-79
2022/07/28 09:00:37;;;;;;;3.95;0.32;;;19.30;99.90;;;;;;5028106;28;20049;-81
2022/07/28 09:03:04;;;;;;;5.03;0.55;;;19.30;99.90;;;;;;5020821;28;20131;-79
2022/07/28 09:05:30;;;;;;;5.13;0.50;;;19.20;99.90;;;;;;5038628;28;20049;-80
2022/07/28 09:07:58;;;;;;;1.77;0.30;;;19.20;99.90;;;;;;5021917;28;20114;-79
2022/07/28 09:10:24;;;;;;;4.18;0.40;;;19.30;99.90;;;;;;5038986;28;20056;-79
2022/07/28 09:13:07;;;;;;;3.08;0.47;;;19.40;99.90;;;;;;5020294;28;20049;-82
2022/07/28 09:15:36;;;;;;;2.05;0.40;;;19.80;99.90;;;;;;5009046;28;20079;-79
2022/07/28 09:18:02;;;;;;;3.00;0.40;;;19.90;99.90;;;;;;5008445;28;20049;-80
2022/07/28 09:20:28;;;;;;;3.28;0.75;;;20.50;99.90;;;;;;5024522;28;20738;-79
2022/07/28 09:23:02;;;;;;;3.17;0.47;;;20.20;99.90;;;;;;5029526;28;20049;-80
2022/07/28 09:25:31;;;;;;;6.25;0.68;;;20.30;99.90;;;;;;5034668;28;20053;-81
2022/07/28 09:28:22;;;;;;;2.85;0.70;;;20.50;99.90;;;;;;5032212;28;20047;-82
2022/07/28 09:30:52;;;;;;;3.13;0.77;;;20.60;99.90;;;;;;4995741;28;20093;-80
2022/07/28 09:33:26;;;;;;;;;;;20.40;99.90;;;;;;5023787;22;20058;-81
2022/07/28 09:35:51;;;;;;;2.92;0.47;;;20.10;99.90;;;;;;4984673;28;20036;-81
2022/07/28 09:38:26;;;;;;;2.10;0.50;;;20.20;99.90;;;;;;5003491;28;20496;-84
2022/07/28 09:41:20;;;;;;;1.13;0.43;;;20.20;99.90;;;;;;4971467;28;20041;-80
2022/07/28 09:43:48;;;;;;;4.40;0.50;;;20.40;99.90;;;;;;4927044;29;20059;-81
2022/07/28 09:46:23;;;;;;;4.07;0.50;;;20.30;99.90;;;;;;4999477;28;20154;-79
2022/07/28 09:48:54;;;;;;;;;;;20.20;99.90;;;;;;5005048;28;20504;-81
2022/07/28 09:51:27;;;;;;;1.40;0.40;;;20.10;99.90;;;;;;5006410;28;20311;-79
2022/07/28 09:54:09;;;;;;;8.60;0.93;;;20.00;99.90;;;;;;5008634;28;20038;-78
2022/07/28 09:56:39;;;;;;;4.93;0.70;;;19.90;99.90;;;;;;4981443;28;20041;-79
2022/07/28 09:59:12;;;;;;;6.78;0.70;;;19.80;99.90;;;;;;5005693;28;20103;-81
2022/07/28 10:01:54;;;;;;;2.95;0.43;;;19.60;99.90;;;;;;5009820;28;20188;-79
2022/07/28 10:04:35;;;;;;;5.13;1.02;;;19.70;99.90;;;;;;5005397;28;20049;-79
2022/07/28 10:07:18;;;;;;;1.45;0.50;;;19.80;99.90;;;;;;5003400;28;20107;-80
2022/07/28 10:10:06;;;;;;;4.28;0.73;;;19.70;99.90;;;;;;5001908;28;20038;-81
2022/07/28 10:12:34;;;;;;;4.57;0.40;;;19.50;99.90;;;;;;5002162;28;20054;-79
2022/07/28 10:16:09;;;;;;;4.22;0.50;;;19.10;99.90;;;;;;5007492;28;20033;-78
2022/07/28 10:17:57;;;;;;;2.53;0.68;;;19.00;99.90;;;;;;5004412;28;20088;-79
2022/07/28 10:20:24;;;;;;;3.97;0.60;;;18.80;99.90;;;;;;5003523;28;20064;-79
2022/07/28 10:22:51;;;;;;;2.92;0.40;;;18.90;99.90;;;;;;5005079;28;20046;-79
2022/07/28 10:25:20;;;;;;;4.07;0.50;;;18.80;99.90;;;;;;4988733;28;20119;-80
2022/07/28 10:27:47;;;;;;;4.22;0.80;;;18.90;99.90;;;;;;5003798;28;20046;-78
2022/07/28 10:30:14;;;;;;;3.53;0.75;;;18.90;99.90;;;;;;5015873;28;20127;-80
2022/07/28 10:32:42;;;;;;;2.45;0.70;;;19.00;99.90;;;;;;5004337;28;20630;-79
2022/07/28 10:35:11;;;;;;;3.42;0.40;;;19.00;99.90;;;;;;5002127;28;20128;-77
2022/07/28 10:38:07;;;;;;;4.03;0.63;;;19.00;99.90;;;;;;5008541;28;20187;-79
2022/07/28 10:40:37;;;;;;;3.30;0.90;;;19.00;99.90;;;;;;5004755;28;20159;-79
2022/07/28 10:43:04;;;;;;;3.20;0.60;;;19.00;99.90;;;;;;5002274;28;20061;-83
2022/07/28 10:45:30;;;;;;;3.58;0.55;;;18.90;99.90;;;;;;4996895;28;20088;-81
2022/07/28 10:47:57;;;;;;;2.67;0.63;;;19.20;99.90;;;;;;4998084;28;20121;-81
2022/07/28 10:50:35;;;;;;;2.72;0.73;;;19.10;99.90;;;;;;4997265;28;20125;-80
2022/07/28 10:53:08;;;;;;;2.13;0.60;;;19.20;99.90;;;;;;4997929;28;20088;-81
2022/07/28 10:55:56;;;;;;;4.15;1.08;;;19.20;99.90;;;;;;4986078;28;20046;-81
2022/07/28 10:58:54;;;;;;;3.85;0.80;;;19.30;99.90;;;;;;4999561;28;20061;-80
2022/07/28 11:01:37;;;;;;;2.97;0.68;;;19.40;99.90;;;;;;4995543;28;20068;-82
2022/07/28 11:04:04;;;;;;;2.55;0.55;;;19.50;99.90;;;;;;4996653;28;20058;-81
2022/07/28 11:06:35;;;;;;;3.63;0.50;;;19.40;99.90;;;;;;5002324;28;20455;-79
2022/07/28 11:09:16;;;;;;;2.85;0.73;;;19.40;99.90;;;;;;5017362;28;20792;-78
2022/07/28 11:11:53;;;;;;;3.20;0.82;;;19.50;99.90;;;;;;4997958;28;20092;-78
2022/07/28 11:14:25;;;;;;;5.40;0.55;;;19.50;99.90;;;;;;4995873;28;20046;-82
2022/07/28 11:17:17;;;;;;;45.00;2.95;;;19.60;99.90;;;;;;4996149;28;20034;-80
2022/07/28 11:19:42;;;;;;;3.90;0.80;;;19.70;99.90;;;;;;4997619;28;20052;-79
2022/07/28 11:22:17;;;;;;;9.25;0.77;;;19.80;99.90;;;;;;5003041;28;20054;-81
2022/07/28 11:25:02;;;;;;;5.45;1.23;;;19.80;99.90;;;;;;5004020;28;20414;-83
2022/07/28 11:27:40;;;;;;;44.22;2.67;;;19.90;99.90;;;;;;5000401;28;20096;-80
2022/07/28 11:30:10;;;;;;;2.05;0.47;;;20.00;99.90;;;;;;5000630;28;20044;-80
2022/07/28 11:32:54;;;;;;;3.88;0.60;;;20.10;99.90;;;;;;5019191;28;20411;-80
2022/07/28 11:35:24;;;;;;;3.85;0.57;;;20.10;99.90;;;;;;5004845;28;20465;-80
2022/07/28 11:38:02;;;;;;;3.75;0.52;;;20.00;99.90;;;;;;4993584;28;20121;-79
2022/07/28 11:40:53;;;;;;;2.72;0.40;;;19.80;99.90;;;;;;4983942;28;20041;-82
2022/07/28 11:45:48;;;;;;;6.53;0.52;;;19.60;99.90;;;;;;4993587;28;20057;-81
2022/07/28 11:48:14;;;;;;;3.00;0.40;;;19.70;99.90;;;;;;4993796;28;20141;-83
2022/07/28 11:51:02;;;;;;;1.58;0.70;;;19.80;99.90;;;;;;4994556;28;20192;-80
2022/07/28 11:53:58;;;;;;;7.97;1.52;;;20.00;99.90;;;;;;4995405;28;20141;-81
2022/07/28 11:56:30;;;;;;;2.38;0.57;;;20.20;99.90;;;;;;4981210;28;20641;-79
2022/07/28 11:58:58;;;;;;;4.65;0.40;;;20.30;99.90;;;;;;4995169;28;20057;-79
2022/07/28 12:01:23;;;;;;;2.03;0.35;;;20.40;99.90;;;;;;4994912;28;20137;-81
2022/07/28 12:03:52;;;;;;;3.30;0.55;;;20.60;99.90;;;;;;4995661;28;20037;-79
2022/07/28 12:06:19;;;;;;;1.50;0.57;;;20.70;99.90;;;;;;4995734;28;20728;-80
2022/07/28 12:08:55;;;;;;;2.22;0.93;;;20.80;99.90;;;;;;4982078;28;20473;-83
2022/07/28 12:11:23;;;;;;;3.80;0.40;;;20.80;99.90;;;;;;4991729;28;20135;-82
2022/07/28 12:14:04;;;;;;;0.70;0.35;;;20.80;99.90;;;;;;4997452;28;20061;-83
2022/07/28 12:16:31;;;;;;;0.50;0.20;;;20.60;99.90;;;;;;5010461;28;20037;-80
2022/07/28 12:18:59;;;;;;;3.22;0.40;;;20.50;99.90;;;;;;4999860;28;20096;-80
2022/07/28 12:21:38;;;;;;;1.20;0.55;;;20.20;99.90;;;;;;4981108;28;20077;-81
2022/07/28 12:24:05;;;;;;;6.75;0.40;;;20.10;99.90;;;;;;4996137;28;20133;-82
2022/07/28 12:26:32;;;;;;;4.18;1.27;;;20.00;99.90;;;;;;4994007;28;20761;-80
2022/07/28 12:28:59;;;;;;;1.65;0.50;;;20.10;99.90;;;;;;4994529;28;20519;-80
2022/07/28 12:31:29;;;;;;;2.15;0.75;;;20.00;99.90;;;;;;4998478;28;20045;-80
2022/07/28 12:34:01;;;;;;;4.88;1.00;;;19.90;99.90;;;;;;4987625;28;20061;-79
2022/07/28 12:36:28;;;;;;;1.60;0.47;;;19.90;99.90;;;;;;5000343;28;20052;-80
2022/07/28 12:38:54;;;;;;;1.40;0.35;;;20.10;99.90;;;;;;4995994;28;20056;-81
2022/07/28 12:41:19;;;;;;;3.22;0.40;;;20.20;99.90;;;;;;5016732;28;20042;-78
2022/07/28 12:43:50;;;;;;;1.75;0.40;;;20.20;99.80;;;;;;5000747;28;20050;-78
2022/07/28 12:46:23;;;;;;;1.40;0.40;;;20.30;99.30;;;;;;5002463;28;20386;-78
2022/07/28 12:48:49;;;;;;;0.88;0.25;;;20.40;99.60;;;;;;5001175;28;20045;-79
2022/07/28 12:51:34;;;;;;;1.77;0.32;;;20.30;99.30;;;;;;5001587;28;20037;-79
2022/07/28 12:54:00;;;;;;;2.45;0.40;;;20.30;99.60;;;;;;5015000;28;20563;-78
2022/07/28 12:56:29;;;;;;;2.50;0.70;;;20.30;99.80;;;;;;4999213;28;20038;-80
2022/07/28 12:59:21;;;;;;;3.50;0.75;;;20.30;99.90;;;;;;5002039;28;20046;-80
2022/07/28 13:01:55;;;;;;;2.00;0.30;;;20.50;99.90;;;;;;5000112;28;20616;-78
2022/07/28 13:04:49;;;;;;;5.00;0.30;;;20.70;99.90;;;;;;4984659;28;20038;-78
2022/07/28 13:07:21;;;;;;;2.63;0.50;;;21.00;99.50;;;;;;5002650;28;20046;-78
2022/07/28 13:09:49;;;;;;;4.07;0.60;;;21.10;99.90;;;;;;5012169;28;20087;-78